createdAt,value
2019-06-01T00:00:18.734Z,72.34
2019-06-01T00:02:55.477Z,72.42
2019-06-01T00:05:19.751Z,72.36
2019-06-01T00:07:50.607Z,72.41
2019-06-01T00:10:20.357Z,72.45
2019-06-01T00:12:50.291Z,72.75
2019-06-01T00:15:19.891Z,72.72
2019-06-01T00:17:50.035Z,72.86
2019-06-01T00:20:19.802Z,73.04
2019-06-01T00:22:52.337Z,73.13
2019-06-01T00:25:25.118Z,73.21
2019-06-01T00:27:54.769Z,73.63
2019-06-01T00:30:27.369Z,73.67
2019-06-01T00:32:55.974Z,73.63
2019-06-01T00:35:25.648Z,73.65
2019-06-01T00:37:55.271Z,73.80
2019-06-01T00:40:24.952Z,73.72
2019-06-01T00:42:54.607Z,73.97
2019-06-01T00:45:24.235Z,73.98
2019-06-01T00:47:53.859Z,74.13
2019-06-01T00:50:23.782Z,74.06
2019-06-01T00:52:53.509Z,73.85
2019-06-01T00:55:23.684Z,74.09
2019-06-01T00:57:54.024Z,74.32
2019-06-01T01:00:23.743Z,74.28
2019-06-01T01:02:54.376Z,74.15
2019-06-01T01:05:24.498Z,74.11
2019-06-01T01:07:55.097Z,74.26
2019-06-01T01:10:24.825Z,74.04
2019-06-01T01:13:04.763Z,73.93
2019-06-01T01:15:34.957Z,73.92
2019-06-01T01:18:06.896Z,74.02
2019-06-01T01:20:38.070Z,73.96
2019-06-01T01:23:08.554Z,74.36
2019-06-01T01:25:38.161Z,74.65
2019-06-01T01:28:07.852Z,74.71
2019-06-01T01:30:37.671Z,74.69
2019-06-01T01:33:07.566Z,75.03
2019-06-01T01:35:37.234Z,75.24
2019-06-01T01:38:06.863Z,75.60
2019-06-01T01:40:36.495Z,75.48
2019-06-01T01:43:06.161Z,75.65
2019-06-01T01:45:35.778Z,75.59
2019-06-01T01:48:05.664Z,75.73
2019-06-01T01:50:35.638Z,75.77
2019-06-01T01:53:05.330Z,75.93
2019-06-01T01:55:34.954Z,76.11
2019-06-01T01:58:04.679Z,76.09
2019-06-01T02:00:40.561Z,76.37
2019-06-01T02:03:10.374Z,76.54
2019-06-01T02:05:40.047Z,76.29
2019-06-01T02:08:10.098Z,76.24
2019-06-01T02:10:39.940Z,76.20
2019-06-01T02:13:09.899Z,76.21
2019-06-01T02:15:41.075Z,76.27
2019-06-01T02:18:10.793Z,76.25
2019-06-01T02:20:40.404Z,76.63
2019-06-01T02:23:10.037Z,76.92
2019-06-01T02:25:40.484Z,76.78
2019-06-01T02:28:10.555Z,77.19
2019-06-01T02:30:40.253Z,77.04
2019-06-01T02:33:10.060Z,77.05
2019-06-01T02:35:45.794Z,77.71
2019-06-01T02:38:15.382Z,77.73
2019-06-01T02:40:45.430Z,77.60
2019-06-01T02:43:15.111Z,77.84
2019-06-01T02:45:45.000Z,77.92
2019-06-01T02:48:14.680Z,77.95
2019-06-01T02:50:44.282Z,77.99
2019-06-01T02:53:13.920Z,78.13
2019-06-01T02:55:44.557Z,78.00
2019-06-01T02:58:14.190Z,78.17
2019-06-01T03:00:49.608Z,78.02
2019-06-01T03:03:19.517Z,77.99
2019-06-01T03:05:50.680Z,77.91
2019-06-01T03:08:20.638Z,78.28
2019-06-01T03:10:52.606Z,78.38
2019-06-01T03:13:25.017Z,78.24
2019-06-01T03:15:56.693Z,78.41
2019-06-01T03:18:28.208Z,78.63
2019-06-01T03:20:59.810Z,78.53
2019-06-01T03:23:31.284Z,78.38
2019-06-01T03:26:04.481Z,78.12
2019-06-01T03:28:37.152Z,78.09
2019-06-01T03:31:08.818Z,78.03
2019-06-01T03:33:38.146Z,78.12
2019-06-01T03:36:08.987Z,78.16
2019-06-01T03:38:38.848Z,78.54
2019-06-01T03:41:08.684Z,78.49
2019-06-01T03:43:38.395Z,78.30
2019-06-01T03:46:08.768Z,78.29
2019-06-01T03:48:39.968Z,78.73
2019-06-01T03:51:09.885Z,78.88
2019-06-01T03:53:39.643Z,78.56
2019-06-01T03:56:09.297Z,79.13
2019-06-01T03:58:39.497Z,79.24
2019-06-01T04:01:09.595Z,79.57
2019-06-01T04:03:39.543Z,79.74
2019-06-01T04:06:09.490Z,79.55
2019-06-01T04:08:39.290Z,79.79
2019-06-01T04:11:09.770Z,79.99
2019-06-01T04:13:40.447Z,79.95
2019-06-01T04:16:10.352Z,80.09
2019-06-01T04:18:40.371Z,80.62
2019-06-01T04:21:10.334Z,80.68
2019-06-01T04:23:40.028Z,80.52
2019-06-01T04:26:10.288Z,80.45
2019-06-01T04:28:40.093Z,80.68
2019-06-01T04:31:10.853Z,80.68
2019-06-01T04:33:40.642Z,80.78
2019-06-01T04:36:10.968Z,80.71
2019-06-01T04:38:40.933Z,80.93
2019-06-01T04:41:11.978Z,80.93
2019-06-01T04:43:41.743Z,80.81
2019-06-01T04:46:12.341Z,80.72
2019-06-01T04:48:42.206Z,80.58
2019-06-01T04:51:13.377Z,80.25
2019-06-01T04:53:43.239Z,80.00
2019-06-01T04:56:13.118Z,79.67
2019-06-01T04:58:42.760Z,79.83
2019-06-01T05:01:13.049Z,79.79
2019-06-01T05:03:42.826Z,79.73
2019-06-01T05:06:13.415Z,80.00
2019-06-01T05:08:43.463Z,79.85
2019-06-01T05:11:13.546Z,79.65
2019-06-01T05:13:43.279Z,79.57
2019-06-01T05:16:14.846Z,79.17
2019-06-01T05:18:44.814Z,78.88
2019-06-01T05:21:15.260Z,78.79
2019-06-01T05:23:45.312Z,79.12
2019-06-01T05:26:15.162Z,79.41
2019-06-01T05:28:44.813Z,79.53
2019-06-01T05:31:21.984Z,79.59
2019-06-01T05:33:45.959Z,79.47
2019-06-01T05:36:16.246Z,79.52
2019-06-01T05:38:46.046Z,79.47
2019-06-01T05:41:16.695Z,79.42
2019-06-01T05:43:46.327Z,79.37
2019-06-01T05:46:16.165Z,79.34
2019-06-01T05:48:45.782Z,79.05
2019-06-01T05:51:18.141Z,78.89
2019-06-01T05:53:46.793Z,78.71
2019-06-01T05:56:16.882Z,78.16
2019-06-01T05:58:46.652Z,77.93
2019-06-01T06:01:16.491Z,78.05
2019-06-01T06:03:46.221Z,77.87
2019-06-01T06:06:15.874Z,77.94
2019-06-01T06:08:45.487Z,77.88
2019-06-01T06:11:15.156Z,77.87
2019-06-01T06:13:44.778Z,77.32
2019-06-01T06:16:15.632Z,76.83
2019-06-01T06:18:45.706Z,76.37
2019-06-01T06:21:16.064Z,76.02
2019-06-01T06:23:45.745Z,75.60
2019-06-01T06:26:16.820Z,75.55
2019-06-01T06:28:46.724Z,75.40
2019-06-01T06:31:17.027Z,75.53
2019-06-01T06:33:56.126Z,75.56
2019-06-01T06:36:19.685Z,75.31
2019-06-01T06:38:49.428Z,74.73
2019-06-01T06:41:20.355Z,74.46
2019-06-01T06:43:50.796Z,74.41
2019-06-01T06:46:20.762Z,74.44
2019-06-01T06:48:51.148Z,74.30
2019-06-01T06:51:21.268Z,74.10
2019-06-01T06:53:50.964Z,74.04
2019-06-01T06:56:21.749Z,74.13
2019-06-01T06:58:51.643Z,74.06
2019-06-01T07:01:22.812Z,73.89
2019-06-01T07:03:52.678Z,73.31
2019-06-01T07:06:23.574Z,73.08
2019-06-01T07:08:54.069Z,72.75
2019-06-01T07:11:24.002Z,72.43
2019-06-01T07:13:54.709Z,72.28
2019-06-01T07:16:25.463Z,72.19
2019-06-01T07:18:55.209Z,72.14
2019-06-01T07:21:25.852Z,71.37
2019-06-01T07:23:55.674Z,71.21
2019-06-01T07:26:26.209Z,71.29
2019-06-01T07:28:56.013Z,71.47
2019-06-01T07:31:26.510Z,71.47
2019-06-01T07:33:56.192Z,71.66
2019-06-01T07:36:26.714Z,71.70
2019-06-01T07:38:56.788Z,71.83
2019-06-01T07:41:26.737Z,71.97
2019-06-01T07:43:56.383Z,71.81
2019-06-01T07:46:26.900Z,71.65
2019-06-01T07:48:56.588Z,71.91
2019-06-01T07:51:27.406Z,71.94
2019-06-01T07:53:57.381Z,72.07
2019-06-01T07:56:27.066Z,72.04
2019-06-01T07:58:56.684Z,72.11
2019-06-01T08:01:27.807Z,72.35
2019-06-01T08:03:57.869Z,72.41
2019-06-01T08:06:28.109Z,72.49
2019-06-01T08:08:58.800Z,72.49
2019-06-01T08:11:32.745Z,72.52
2019-06-01T08:14:00.499Z,72.49
2019-06-01T08:16:30.134Z,72.39
2019-06-01T08:19:00.103Z,72.50
2019-06-01T08:21:30.175Z,72.51
2019-06-01T08:23:59.798Z,72.55
2019-06-01T08:26:30.540Z,72.56
2019-06-01T08:29:00.363Z,72.52
2019-06-01T08:31:31.813Z,72.33
2019-06-01T08:34:02.204Z,72.33
2019-06-01T08:36:33.762Z,72.28
2019-06-01T08:39:11.123Z,72.31
2019-06-01T08:41:40.996Z,72.38
2019-06-01T08:44:10.940Z,72.31
2019-06-01T08:46:40.560Z,72.13
2019-06-01T08:49:10.325Z,71.94
2019-06-01T08:51:40.099Z,71.93
2019-06-01T08:54:09.785Z,71.98
2019-06-01T08:56:39.707Z,72.02
2019-06-01T08:59:09.699Z,72.05
2019-06-01T09:01:39.416Z,72.11
2019-06-01T09:04:09.203Z,71.87
2019-06-01T09:06:39.128Z,71.44
2019-06-01T09:09:11.652Z,71.45
2019-06-01T09:11:40.418Z,71.42
2019-06-01T09:14:10.041Z,71.37
2019-06-01T09:16:39.758Z,71.22
2019-06-01T09:19:11.746Z,70.98
2019-06-01T09:21:41.521Z,70.53
2019-06-01T09:24:11.148Z,70.73
2019-06-01T09:26:40.865Z,70.70
2019-06-01T09:29:10.864Z,70.47
2019-06-01T09:31:40.483Z,70.44
2019-06-01T09:34:10.165Z,70.20
2019-06-01T09:36:39.783Z,69.90
2019-06-01T09:39:09.422Z,69.61
2019-06-01T09:41:39.071Z,69.41
2019-06-01T09:44:08.700Z,69.46
2019-06-01T09:46:38.338Z,69.21
2019-06-01T09:49:08.031Z,69.19
2019-06-01T09:51:37.899Z,68.88
2019-06-01T09:54:07.654Z,68.48
2019-06-01T09:56:39.273Z,68.32
2019-06-01T09:59:08.659Z,67.79
2019-06-01T10:01:38.851Z,67.75
2019-06-01T10:04:09.555Z,67.86
2019-06-01T10:06:43.387Z,67.21
2019-06-01T10:09:13.031Z,66.76
2019-06-01T10:11:42.690Z,66.43
2019-06-01T10:14:12.325Z,66.50
2019-06-01T10:16:43.179Z,66.52
2019-06-01T10:19:12.942Z,66.29
2019-06-01T10:21:42.561Z,66.25
2019-06-01T10:24:12.192Z,66.38
2019-06-01T10:26:41.981Z,66.07
2019-06-01T10:29:11.565Z,65.71
2019-06-01T10:31:41.623Z,65.55
2019-06-01T10:34:11.360Z,65.25
2019-06-01T10:36:42.198Z,65.30
2019-06-01T10:39:12.591Z,65.25
2019-06-01T10:41:42.256Z,64.85
2019-06-01T10:44:11.879Z,65.04
2019-06-01T10:46:42.191Z,63.99
2019-06-01T10:49:12.329Z,63.51
2019-06-01T10:51:42.336Z,63.43
2019-06-01T10:54:12.129Z,63.33
2019-06-01T10:56:42.589Z,63.08
2019-06-01T10:59:12.297Z,62.88
2019-06-01T11:01:42.758Z,62.73
2019-06-01T11:04:12.475Z,62.51
2019-06-01T11:06:47.752Z,62.14
2019-06-01T11:09:15.099Z,61.80
2019-06-01T11:11:44.855Z,61.96
2019-06-01T11:14:14.475Z,61.79
2019-06-01T11:16:44.239Z,61.81
2019-06-01T11:19:14.017Z,62.01
2019-06-01T11:21:43.903Z,61.44
2019-06-01T11:24:13.694Z,61.27
2019-06-01T11:26:43.923Z,60.42
2019-06-01T11:29:13.582Z,59.99
2019-06-01T11:31:44.209Z,59.63
2019-06-01T11:34:14.002Z,59.67
2019-06-01T11:37:03.655Z,59.99
2019-06-01T11:39:14.956Z,59.29
2019-06-01T11:41:44.871Z,59.47
2019-06-01T11:44:14.669Z,58.70
2019-06-01T11:46:45.158Z,58.31
2019-06-01T11:49:15.065Z,58.20
2019-06-01T11:51:45.256Z,57.75
2019-06-01T11:54:15.054Z,57.75
2019-06-01T11:56:45.529Z,57.70
2019-06-01T11:59:15.319Z,57.52
2019-06-01T12:01:46.062Z,57.93
2019-06-01T12:04:15.836Z,57.61
2019-06-01T12:06:46.317Z,56.77
2019-06-01T12:09:16.047Z,55.68
2019-06-01T12:11:46.395Z,55.59
2019-06-01T12:14:16.133Z,55.47
2019-06-01T12:16:46.761Z,55.20
2019-06-01T12:19:16.613Z,55.17
2019-06-01T12:21:47.434Z,54.75
2019-06-01T12:24:17.203Z,53.93
2019-06-01T12:26:47.625Z,54.30
2019-06-01T12:29:17.402Z,54.88
2019-06-01T12:31:48.183Z,55.10
2019-06-01T12:34:17.997Z,55.01
2019-06-01T12:36:48.498Z,55.24
2019-06-01T12:39:18.222Z,55.01
2019-06-01T12:41:47.942Z,55.10
2019-06-01T12:44:17.525Z,54.63
2019-06-01T12:46:47.280Z,54.76
2019-06-01T12:49:16.874Z,54.20
2019-06-01T12:51:47.055Z,54.20
2019-06-01T12:54:16.882Z,53.65
2019-06-01T12:56:47.796Z,53.54
2019-06-01T12:59:17.896Z,53.41
2019-06-01T13:01:47.548Z,52.92
2019-06-01T13:04:17.167Z,52.52
2019-06-01T13:06:52.010Z,52.42
2019-06-01T13:09:20.363Z,52.53
2019-06-01T13:11:51.371Z,53.16
2019-06-01T13:14:21.258Z,52.58
2019-06-01T13:17:05.914Z,52.55
2019-06-01T13:19:22.308Z,52.72
2019-06-01T13:21:51.983Z,52.70
2019-06-01T13:24:21.723Z,52.99
2019-06-01T13:26:51.953Z,53.16
2019-06-01T13:29:21.661Z,53.11
2019-06-01T13:31:52.582Z,52.18
2019-06-01T13:34:22.426Z,51.96
2019-06-01T13:36:53.006Z,52.01
2019-06-01T13:39:22.851Z,52.36
2019-06-01T13:41:53.467Z,52.84
2019-06-01T13:44:23.844Z,52.78
2019-06-01T13:46:53.769Z,53.12
2019-06-01T13:49:23.413Z,52.86
2019-06-01T13:51:53.045Z,53.05
2019-06-01T13:54:22.731Z,53.32
2019-06-01T13:56:53.025Z,53.29
2019-06-01T13:59:22.855Z,53.23
2019-06-01T14:01:53.185Z,53.45
2019-06-01T14:04:22.945Z,53.47
2019-06-01T14:06:53.174Z,53.37
2019-06-01T14:09:22.955Z,53.54
2019-06-01T14:11:53.515Z,53.77
2019-06-01T14:14:23.196Z,53.89
2019-06-01T14:16:53.591Z,53.96
2019-06-01T14:19:23.270Z,54.40
2019-06-01T14:21:54.215Z,55.29
2019-06-01T14:27:58.663Z,57.20
2019-06-01T14:30:28.787Z,58.11
2019-06-01T14:32:58.404Z,58.73
2019-06-01T14:35:28.047Z,59.01
2019-06-01T14:37:57.703Z,59.51
2019-06-01T14:40:27.413Z,59.95
2019-06-01T14:42:57.787Z,60.11
2019-06-01T14:45:27.707Z,60.18
2019-06-01T14:47:57.712Z,60.08
2019-06-01T14:50:27.385Z,59.99
2019-06-01T14:52:57.871Z,59.63
2019-06-01T14:55:27.668Z,59.85
2019-06-01T14:57:58.412Z,59.90
2019-06-01T15:00:28.264Z,60.22
2019-06-01T15:02:58.401Z,60.48
2019-06-01T15:05:28.256Z,60.88
2019-06-01T15:07:59.011Z,61.36
2019-06-01T15:10:36.623Z,61.88
2019-06-01T15:13:06.284Z,62.03
2019-06-01T15:15:35.903Z,61.88
2019-06-01T15:18:05.803Z,61.64
2019-06-01T15:20:53.798Z,61.85
2019-06-01T15:23:23.450Z,62.06
2019-06-01T15:25:54.398Z,61.45
2019-06-01T15:28:24.292Z,61.18
2019-06-01T15:30:54.850Z,60.68
2019-06-01T15:33:33.630Z,60.10
2019-06-01T15:36:15.368Z,59.13
2019-06-01T15:53:17.781Z,56.43
2019-06-01T15:55:47.401Z,55.60
2019-06-01T15:58:17.031Z,55.20
2019-06-01T16:00:46.699Z,55.07
2019-06-01T16:03:16.387Z,55.20
2019-06-01T16:05:46.022Z,55.21
2019-06-01T16:08:15.828Z,55.42
2019-06-01T16:10:46.024Z,55.23
2019-06-01T16:13:16.218Z,55.37
2019-06-01T16:15:45.904Z,55.28
2019-06-01T16:18:17.139Z,55.32
2019-06-01T16:20:52.129Z,55.55
2019-06-01T16:23:21.835Z,55.51
2019-06-01T16:26:03.794Z,55.28
2019-06-01T16:35:43.345Z,55.28
2019-06-01T16:50:16.048Z,54.56
2019-06-01T16:56:33.399Z,53.95
2019-06-01T16:59:04.306Z,53.58
2019-06-01T17:01:33.931Z,53.70
2019-06-01T17:04:04.682Z,53.71
2019-06-01T17:06:36.230Z,53.03
2019-06-01T17:09:08.057Z,53.11
2019-06-01T17:11:37.859Z,53.08
2019-06-01T17:27:44.539Z,53.30
2019-06-01T17:30:14.226Z,53.44
2019-06-01T17:33:00.704Z,53.63
2019-06-01T17:35:29.874Z,53.59
2019-06-01T17:38:00.698Z,53.67
2019-06-01T17:40:37.670Z,53.72
2019-06-01T17:43:04.691Z,53.77
2019-06-01T17:45:34.650Z,53.60
2019-06-01T17:48:18.093Z,53.72
2019-06-01T17:50:36.587Z,53.76
2019-06-01T17:53:06.786Z,53.72
2019-06-01T17:55:40.811Z,53.83
2019-06-01T17:58:12.242Z,54.11
2019-06-01T18:00:42.221Z,54.04
2019-06-01T18:03:12.244Z,54.17
2019-06-01T18:05:42.013Z,54.34
2019-06-01T18:08:12.650Z,54.72
2019-06-01T18:10:54.122Z,54.96
2019-06-01T18:13:15.397Z,54.83
2019-06-01T18:15:45.044Z,54.95
2019-06-01T18:18:14.870Z,55.11
2019-06-01T18:20:44.782Z,55.50
2019-06-01T18:23:14.454Z,55.35
2019-06-01T18:25:44.112Z,55.52
2019-06-01T18:28:18.617Z,55.81
2019-06-01T18:30:45.597Z,55.89
2019-06-01T18:33:15.327Z,55.91
2019-06-01T18:35:45.223Z,56.34
2019-06-01T18:38:15.466Z,56.62
2019-06-01T18:40:46.893Z,56.72
2019-06-01T18:43:18.767Z,56.91
2019-06-01T18:45:49.414Z,57.44
2019-06-01T18:48:20.181Z,57.80
2019-06-01T18:50:49.903Z,58.28
2019-06-01T18:53:19.603Z,58.69
2019-06-01T18:55:49.342Z,59.03
2019-06-01T18:58:19.895Z,59.52
2019-06-01T19:00:49.542Z,59.95
2019-06-01T19:03:19.216Z,60.16
2019-06-01T19:05:48.920Z,60.52
2019-06-01T19:08:18.545Z,60.88
2019-06-01T19:10:49.157Z,60.98
2019-06-01T19:13:19.279Z,61.12
2019-06-01T19:22:08.437Z,61.55
2019-06-01T19:28:39.807Z,62.11
2019-06-01T19:31:15.291Z,62.07
2019-06-01T19:33:47.076Z,62.22
2019-06-01T19:36:17.198Z,62.32
2019-06-01T19:38:47.512Z,62.48
2019-06-01T19:41:17.541Z,62.58
2019-06-01T19:43:47.675Z,62.56
2019-06-01T19:46:18.032Z,62.49
2019-06-01T19:48:47.901Z,62.62
2019-06-01T19:51:18.785Z,62.70
2019-06-01T19:53:48.733Z,63.04
2019-06-01T19:56:20.484Z,63.26
2019-06-01T19:58:49.764Z,63.26
2019-06-01T20:01:19.418Z,63.23
2019-06-01T20:03:49.117Z,63.37
2019-06-01T20:06:18.993Z,63.52
2019-06-01T20:08:48.695Z,63.60
2019-06-01T20:11:19.339Z,63.42
2019-06-01T20:13:49.348Z,63.39
2019-06-01T20:16:20.179Z,63.41
2019-06-01T20:18:50.315Z,63.39
2019-06-01T20:21:20.660Z,63.46
2019-06-01T20:23:51.842Z,63.51
2019-06-01T20:26:38.711Z,63.68
2019-06-01T20:28:53.446Z,64.13
2019-06-01T20:31:23.154Z,64.25
2019-06-01T20:33:56.240Z,64.24
2019-06-01T20:36:24.520Z,64.48
2019-06-01T20:38:54.164Z,64.52
2019-06-01T20:41:23.855Z,64.58
2019-06-01T20:43:53.529Z,64.58
2019-06-01T20:46:23.533Z,64.33
2019-06-01T20:48:53.220Z,64.26
2019-06-01T20:51:26.892Z,64.01
2019-06-01T20:53:54.446Z,63.83
2019-06-01T20:56:24.130Z,63.83
2019-06-01T20:58:53.755Z,63.95
2019-06-01T21:01:38.391Z,64.07
2019-06-01T21:04:08.769Z,63.95
2019-06-01T21:06:38.576Z,63.86
2019-06-01T21:09:09.392Z,64.14
2019-06-01T21:11:39.035Z,64.41
2019-06-01T21:14:08.643Z,64.36
2019-06-01T21:16:38.311Z,64.57
2019-06-01T21:19:08.028Z,64.89
2019-06-01T21:21:37.666Z,64.86
2019-06-01T21:24:07.346Z,64.80
2019-06-01T21:26:36.989Z,64.76
2019-06-01T21:29:06.622Z,64.81
2019-06-01T21:31:36.324Z,64.88
2019-06-01T21:34:05.945Z,64.86
2019-06-01T21:36:35.581Z,64.88
2019-06-01T21:39:08.018Z,64.98
2019-06-01T21:41:37.640Z,65.32
2019-06-01T21:44:09.274Z,65.20
2019-06-01T21:46:40.373Z,65.04
2019-06-01T21:49:13.891Z,64.97
2019-06-01T21:55:18.093Z,65.20
2019-06-01T21:57:47.753Z,65.13
2019-06-01T22:00:30.439Z,65.34
2019-06-01T22:03:03.228Z,65.28
2019-06-01T22:05:34.487Z,65.17
2019-06-01T22:08:04.564Z,65.22
2019-06-01T22:10:34.204Z,65.25
2019-06-01T22:13:17.666Z,65.17
2019-06-01T22:15:35.453Z,65.30
2019-06-01T22:18:05.704Z,65.32
2019-06-01T22:20:35.340Z,65.31
2019-06-01T22:23:05.200Z,65.41
2019-06-01T22:25:36.797Z,65.48
2019-06-01T22:28:06.521Z,65.56
2019-06-01T22:30:36.157Z,65.83
2019-06-01T22:33:05.779Z,65.68
2019-06-01T22:35:35.462Z,65.66
2019-06-01T22:38:05.227Z,65.74
2019-06-01T22:40:34.873Z,65.87
2019-06-01T22:43:07.907Z,65.82
2019-06-01T22:45:37.770Z,65.69
2019-06-01T22:48:07.410Z,65.54
2019-06-01T22:50:37.045Z,65.48
2019-06-01T22:53:06.804Z,65.59
2019-06-01T22:55:36.419Z,65.47
2019-06-01T22:58:06.129Z,65.41
2019-06-01T23:00:35.814Z,65.45
2019-06-01T23:03:05.479Z,65.48
2019-06-01T23:05:35.126Z,65.62
2019-06-01T23:08:04.873Z,65.86
2019-06-01T23:10:35.519Z,65.88
2019-06-01T23:13:06.059Z,66.00
2019-06-01T23:15:35.745Z,66.01
2019-06-01T23:18:05.447Z,66.15
2019-06-01T23:20:35.074Z,66.31
2019-06-01T23:23:04.801Z,66.35
2019-06-01T23:25:34.415Z,66.49
2019-06-01T23:28:04.049Z,66.50
2019-06-01T23:30:33.711Z,66.73
2019-06-01T23:33:03.336Z,66.72
2019-06-01T23:35:32.978Z,66.71
2019-06-01T23:38:02.715Z,66.98
2019-06-01T23:40:32.771Z,67.17
2019-06-01T23:43:02.713Z,67.06
2019-06-01T23:45:34.975Z,67.36
2019-06-01T23:48:04.669Z,67.17
2019-06-01T23:50:34.281Z,67.17
2019-06-01T23:53:13.162Z,66.96
2019-06-01T23:55:35.562Z,66.96
2019-06-01T23:58:05.618Z,66.97
